Time;durP1;ratioP1;P1;durP2;ratioP2;P2;SDS_P1;SDS_P2;PMS_P1;PMS_P2;Temp;Humidity;BMP_temperature;BMP_pressure;BME280_temperature;BME280_humidity;BME280_pressure;Samples;Min_cycle;Max_cycle;Signal;HPM_P1;HPM_P2
2023/03/17 00:02:00;;;;;;;0.60;0.10;;;;;;;;;;105779;1257;59746;-47
2023/03/17 00:04:28;;;;;;;3.50;0.20;;;;;;;;;;106196;1256;59621;-47
2023/03/17 00:06:56;;;;;;;0.40;0.10;;;;;;;;;;105815;1255;61054;-48
2023/03/17 00:09:25;;;;;;;0.40;0.20;;;;;;;;;;105749;1256;59557;-49
2023/03/17 00:11:53;;;;;;;1.30;0.10;;;;;;;;;;106088;1256;60731;-48
2023/03/17 00:14:22;;;;;;;0.90;0.10;;;;;;;;;;105639;1254;59730;-49
2023/03/17 00:16:50;;;;;;;0.30;0.10;;;;;;;;;;106489;1253;59668;-46
2023/03/17 00:19:31;;;;;;;0.70;0.10;;;;;;;;;;105678;1257;60892;-48
2023/03/17 00:21:59;;;;;;;0.20;0.10;;;;;;;;;;105911;1254;59635;-48
2023/03/17 00:24:28;;;;;;;0.20;0.10;;;;;;;;;;105899;1254;60808;-47
2023/03/17 00:27:01;;;;;;;4.00;0.10;;;;;;;;;;105592;1257;58941;-46
2023/03/17 00:29:29;;;;;;;0.50;0.20;;;;;;;;;;105517;1254;60425;-46
2023/03/17 00:31:57;;;;;;;0.50;0.10;;;;;;;;;;106012;1254;62292;-47
2023/03/17 00:34:29;;;;;;;0.20;0.10;;;;;;;;;;105467;1260;60401;-47
2023/03/17 00:36:56;;;;;;;0.50;0.20;;;;;;;;;;105648;1257;60352;-45
2023/03/17 00:39:25;;;;;;;0.60;0.20;;;;;;;;;;105855;1256;60460;-47
2023/03/17 00:41:55;;;;;;;0.60;0.10;;;;;;;;;;105786;1258;60422;-48
2023/03/17 00:44:23;;;;;;;2.00;0.10;;;;;;;;;;105756;1255;62202;-45
2023/03/17 00:46:52;;;;;;;2.50;0.20;;;;;;;;;;105546;1257;60438;-48
2023/03/17 00:49:20;;;;;;;0.70;0.10;;;;;;;;;;105709;1253;60608;-49
2023/03/17 00:51:49;;;;;;;0.80;0.20;;;;;;;;;;105808;1257;60553;-47
2023/03/17 00:54:18;;;;;;;2.20;0.20;;;;;;;;;;106064;1254;60424;-47
2023/03/17 00:56:47;;;;;;;0.30;0.10;;;;;;;;;;106580;1254;62040;-50
2023/03/17 00:59:24;;;;;;;0.50;0.20;;;;;;;;;;106347;1257;60531;-50
2023/03/17 01:01:53;;;;;;;0.40;0.20;;;;;;;;;;105860;1251;60824;-48
2023/03/17 01:04:21;;;;;;;0.40;0.20;;;;;;;;;;106116;1257;60476;-47
2023/03/17 01:06:50;;;;;;;1.20;0.40;;;;;;;;;;105651;1254;60481;-47
2023/03/17 01:09:19;;;;;;;1.00;0.10;;;;;;;;;;105619;1254;62274;-50
2023/03/17 01:11:48;;;;;;;0.20;0.10;;;;;;;;;;105945;1254;60469;-49
2023/03/17 01:14:16;;;;;;;0.50;0.20;;;;;;;;;;105912;1254;60740;-44
2023/03/17 01:16:44;;;;;;;0.40;0.20;;;;;;;;;;105787;1256;60504;-47
2023/03/17 01:19:12;;;;;;;0.30;0.10;;;;;;;;;;105906;1253;60425;-49
2023/03/17 01:21:41;;;;;;;0.50;0.20;;;;;;;;;;105548;1255;62182;-46
2023/03/17 01:24:09;;;;;;;0.70;0.20;;;;;;;;;;106101;1256;60374;-47
2023/03/17 01:26:37;;;;;;;1.10;0.20;;;;;;;;;;106975;1254;60548;-45
2023/03/17 01:29:06;;;;;;;0.50;0.20;;;;;;;;;;105545;1257;59161;-47
2023/03/17 01:31:35;;;;;;;0.40;0.10;;;;;;;;;;105509;1253;60440;-46
2023/03/17 01:34:08;;;;;;;1.10;0.10;;;;;;;;;;106775;1254;61964;-50
2023/03/17 01:36:37;;;;;;;0.50;0.20;;;;;;;;;;105633;1253;60561;-47
2023/03/17 01:39:06;;;;;;;0.60;0.10;;;;;;;;;;105735;1251;60632;-48
2023/03/17 01:41:59;;;;;;;1.60;0.60;;;;;;;;;;106021;1254;60508;-49
2023/03/17 01:44:28;;;;;;;0.30;0.10;;;;;;;;;;106017;1254;60766;-49
2023/03/17 01:46:57;;;;;;;1.40;0.20;;;;;;;;;;108033;1254;62361;-50
2023/03/17 01:49:33;;;;;;;0.70;0.10;;;;;;;;;;105631;1254;60366;-49
2023/03/17 01:52:13;;;;;;;0.20;0.10;;;;;;;;;;105871;1256;60637;-49
2023/03/17 01:54:44;;;;;;;0.50;0.10;;;;;;;;;;105622;1256;60409;-48
2023/03/17 01:57:14;;;;;;;0.60;0.10;;;;;;;;;;105578;1251;60450;-50
2023/03/17 01:59:45;;;;;;;0.60;0.10;;;;;;;;;;105888;1253;62135;-48
2023/03/17 02:02:14;;;;;;;0.40;0.10;;;;;;;;;;106188;1254;60572;-50
2023/03/17 02:04:42;;;;;;;0.60;0.10;;;;;;;;;;105609;1254;60765;-49
2023/03/17 02:07:11;;;;;;;0.40;0.10;;;;;;;;;;105604;1254;60514;-49
2023/03/17 02:09:41;;;;;;;0.60;0.10;;;;;;;;;;109134;1253;58490;-48
2023/03/17 02:12:10;;;;;;;0.30;0.10;;;;;;;;;;109242;1253;62168;-47
2023/03/17 02:14:38;;;;;;;0.30;0.10;;;;;;;;;;109103;1254;59028;-47
2023/03/17 02:17:07;;;;;;;0.10;0.00;;;;;;;;;;109186;1251;60673;-48
2023/03/17 02:19:37;;;;;;;0.50;0.10;;;;;;;;;;106438;1254;60412;-48
2023/03/17 02:22:05;;;;;;;1.30;0.40;;;;;;;;;;108681;1256;58394;-48
2023/03/17 02:24:38;;;;;;;0.00;0.00;;;;;;;;;;105713;1254;62684;-47
2023/03/17 02:27:10;;;;;;;0.60;0.10;;;;;;;;;;105525;1257;60661;-47
2023/03/17 02:29:40;;;;;;;0.70;0.10;;;;;;;;;;109221;1251;61010;-50
2023/03/17 02:32:08;;;;;;;0.30;0.10;;;;;;;;;;107855;1257;59470;-49
2023/03/17 02:34:37;;;;;;;0.20;0.00;;;;;;;;;;109182;1252;58404;-48
2023/03/17 02:37:05;;;;;;;0.60;0.10;;;;;;;;;;109306;1254;60628;-49
2023/03/17 02:39:33;;;;;;;0.80;0.20;;;;;;;;;;109281;1251;58342;-47
2023/03/17 02:42:05;;;;;;;0.80;0.10;;;;;;;;;;109187;1253;60751;-47
2023/03/17 02:44:35;;;;;;;1.20;0.10;;;;;;;;;;109252;1253;58124;-47
2023/03/17 02:47:03;;;;;;;0.30;0.10;;;;;;;;;;109113;1254;58286;-48
2023/03/17 02:49:30;;;;;;;0.20;0.10;;;;;;;;;;109243;1253;61289;-48
2023/03/17 02:51:58;;;;;;;0.30;0.10;;;;;;;;;;109260;1251;58731;-47
2023/03/17 02:54:26;;;;;;;0.60;0.10;;;;;;;;;;109263;1253;61293;-47
2023/03/17 02:56:54;;;;;;;0.00;0.00;;;;;;;;;;109253;1254;58501;-49
2023/03/17 02:59:24;;;;;;;0.10;0.10;;;;;;;;;;109249;1254;58726;-49
2023/03/17 03:01:52;;;;;;;0.20;0.10;;;;;;;;;;106128;1257;61189;-48
2023/03/17 03:04:20;;;;;;;0.40;0.10;;;;;;;;;;105884;1257;60428;-49
2023/03/17 03:06:49;;;;;;;0.70;0.20;;;;;;;;;;105621;1251;60745;-48
2023/03/17 03:09:17;;;;;;;0.80;0.10;;;;;;;;;;105669;1255;60335;-48
2023/03/17 03:11:45;;;;;;;1.00;0.20;;;;;;;;;;106053;1253;60441;-49
2023/03/17 03:14:14;;;;;;;0.10;0.00;;;;;;;;;;105492;1255;62361;-48
2023/03/17 03:16:43;;;;;;;0.70;0.10;;;;;;;;;;105866;1253;60526;-47
2023/03/17 03:19:15;;;;;;;0.20;0.20;;;;;;;;;;107170;1254;60527;-49
2023/03/17 03:21:43;;;;;;;0.20;0.10;;;;;;;;;;106528;1254;60542;-49
2023/03/17 03:24:11;;;;;;;0.50;0.20;;;;;;;;;;105514;1254;60457;-50
2023/03/17 03:26:42;;;;;;;0.60;0.20;;;;;;;;;;105537;1257;61219;-48
2023/03/17 03:29:10;;;;;;;1.80;0.10;;;;;;;;;;105443;1254;60495;-48
2023/03/17 03:31:38;;;;;;;0.30;0.20;;;;;;;;;;105611;1253;60744;-48
2023/03/17 03:34:06;;;;;;;1.00;0.10;;;;;;;;;;105480;1257;61325;-48
2023/03/17 03:36:34;;;;;;;0.40;0.10;;;;;;;;;;105548;1256;60550;-49
2023/03/17 03:39:02;;;;;;;0.40;0.20;;;;;;;;;;106088;1256;62279;-48
2023/03/17 03:41:31;;;;;;;0.50;0.20;;;;;;;;;;105811;1256;60419;-48
2023/03/17 03:44:01;;;;;;;1.20;0.40;;;;;;;;;;105827;1258;61022;-46
2023/03/17 03:46:29;;;;;;;0.90;0.20;;;;;;;;;;105799;1253;60405;-46
2023/03/17 03:48:57;;;;;;;0.30;0.20;;;;;;;;;;105845;1251;60402;-49
2023/03/17 03:51:25;;;;;;;1.70;0.30;;;;;;;;;;105930;1252;62464;-48
2023/03/17 03:53:53;;;;;;;0.60;0.30;;;;;;;;;;105899;1256;60364;-49
2023/03/17 03:56:21;;;;;;;1.00;0.50;;;;;;;;;;105781;1257;60939;-46
2023/03/17 03:58:50;;;;;;;1.10;0.60;;;;;;;;;;105798;1254;60477;-47
2023/03/17 04:01:18;;;;;;;4.00;0.50;;;;;;;;;;105935;1253;60425;-46
2023/03/17 04:03:46;;;;;;;1.00;0.50;;;;;;;;;;105950;1253;61960;-46
2023/03/17 04:06:15;;;;;;;1.30;0.40;;;;;;;;;;105838;1256;60584;-47
2023/03/17 04:08:43;;;;;;;1.10;0.40;;;;;;;;;;105948;1254;60453;-48
2023/03/17 04:11:11;;;;;;;1.30;0.40;;;;;;;;;;105826;1256;60453;-46
2023/03/17 04:13:39;;;;;;;0.60;0.40;;;;;;;;;;106326;1256;60378;-50
2023/03/17 04:16:08;;;;;;;1.60;0.40;;;;;;;;;;105736;1253;62181;-47
2023/03/17 04:18:37;;;;;;;0.30;0.30;;;;;;;;;;105760;1256;60722;-48
2023/03/17 04:21:10;;;;;;;1.70;0.20;;;;;;;;;;105647;1256;60791;-49
2023/03/17 04:23:40;;;;;;;0.70;0.30;;;;;;;;;;105647;1266;60463;-48
2023/03/17 04:26:08;;;;;;;0.50;0.30;;;;;;;;;;105776;1251;60864;-47
2023/03/17 04:28:37;;;;;;;0.50;0.30;;;;;;;;;;105486;1257;62195;-49
2023/03/17 04:31:06;;;;;;;3.60;0.40;;;;;;;;;;105961;1254;60364;-47
2023/03/17 04:33:34;;;;;;;1.10;0.40;;;;;;;;;;105855;1254;60771;-48
2023/03/17 04:36:02;;;;;;;0.80;0.40;;;;;;;;;;105610;1257;60728;-49
2023/03/17 04:38:33;;;;;;;0.80;0.30;;;;;;;;;;105688;1251;60310;-46
2023/03/17 04:41:02;;;;;;;0.50;0.30;;;;;;;;;;105769;1256;62206;-48
2023/03/17 04:43:30;;;;;;;1.00;0.30;;;;;;;;;;105636;1256;60344;-46
2023/03/17 04:46:04;;;;;;;1.20;0.40;;;;;;;;;;105649;1253;61201;-47
2023/03/17 04:48:34;;;;;;;6.10;1.30;;;;;;;;;;105931;1256;60559;-48
2023/03/17 04:51:02;;;;;;;3.90;0.50;;;;;;;;;;105956;1253;60505;-46
2023/03/17 04:53:30;;;;;;;4.80;0.60;;;;;;;;;;105779;1254;62127;-47
2023/03/17 04:55:58;;;;;;;1.60;0.50;;;;;;;;;;106209;1256;60348;-46
2023/03/17 04:58:29;;;;;;;5.40;0.80;;;;;;;;;;107236;1253;60796;-48
2023/03/17 05:00:58;;;;;;;2.80;0.50;;;;;;;;;;109215;1253;58263;-48
2023/03/17 05:03:26;;;;;;;2.30;0.80;;;;;;;;;;109227;1251;59822;-49
2023/03/17 05:05:59;;;;;;;2.60;0.50;;;;;;;;;;106230;1254;61894;-49
2023/03/17 05:08:28;;;;;;;0.80;0.40;;;;;;;;;;105977;1251;60513;-48
2023/03/17 05:10:56;;;;;;;0.90;0.40;;;;;;;;;;105613;1253;60418;-49
2023/03/17 05:13:24;;;;;;;2.80;0.40;;;;;;;;;;107025;1252;60342;-49
2023/03/17 05:15:53;;;;;;;3.30;1.10;;;;;;;;;;109236;1253;58141;-48
2023/03/17 05:18:23;;;;;;;3.50;0.70;;;;;;;;;;109285;1253;61094;-48
2023/03/17 05:20:51;;;;;;;0.70;0.50;;;;;;;;;;107185;1254;60428;-51
2023/03/17 05:23:19;;;;;;;0.60;0.40;;;;;;;;;;105489;1254;60912;-47
2023/03/17 05:25:47;;;;;;;1.40;0.30;;;;;;;;;;109118;1254;58253;-50
2023/03/17 05:28:15;;;;;;;0.60;0.30;;;;;;;;;;109151;1253;58393;-49
2023/03/17 05:30:43;;;;;;;0.70;0.40;;;;;;;;;;109262;1253;62151;-49
2023/03/17 05:33:13;;;;;;;0.80;0.40;;;;;;;;;;109295;1251;58454;-49
2023/03/17 05:35:41;;;;;;;0.90;0.50;;;;;;;;;;109237;1253;60609;-50
2023/03/17 05:38:10;;;;;;;0.60;0.50;;;;;;;;;;109247;1251;58398;-49
2023/03/17 05:40:38;;;;;;;1.40;0.60;;;;;;;;;;109298;1253;58266;-49
2023/03/17 05:43:06;;;;;;;2.70;0.60;;;;;;;;;;109208;1253;61210;-49
2023/03/17 05:45:34;;;;;;;1.00;0.40;;;;;;;;;;109248;1251;58385;-50
2023/03/17 05:48:03;;;;;;;0.90;0.40;;;;;;;;;;109190;1253;59524;-49
2023/03/17 05:50:31;;;;;;;0.40;0.30;;;;;;;;;;109184;1253;58564;-49
2023/03/17 05:52:59;;;;;;;0.50;0.30;;;;;;;;;;106341;1253;60508;-48
2023/03/17 05:55:32;;;;;;;4.40;0.80;;;;;;;;;;105593;1253;62197;-46
2023/03/17 05:58:03;;;;;;;1.40;0.70;;;;;;;;;;109263;1252;58493;-49
2023/03/17 06:00:31;;;;;;;0.80;0.40;;;;;;;;;;109272;1253;60487;-49
2023/03/17 06:03:01;;;;;;;0.60;0.40;;;;;;;;;;109278;1251;58622;-50
2023/03/17 06:05:29;;;;;;;1.80;0.50;;;;;;;;;;107612;1253;60409;-48
2023/03/17 06:08:03;;;;;;;2.50;0.40;;;;;;;;;;106022;1256;62256;-50
2023/03/17 06:10:32;;;;;;;0.80;0.40;;;;;;;;;;108402;1254;58156;-49
2023/03/17 06:13:00;;;;;;;0.60;0.30;;;;;;;;;;105626;1253;60526;-49
2023/03/17 06:15:32;;;;;;;1.30;0.40;;;;;;;;;;105888;1256;60389;-47
2023/03/17 06:18:01;;;;;;;2.10;0.40;;;;;;;;;;105707;1254;60364;-47
2023/03/17 06:20:32;;;;;;;1.00;0.40;;;;;;;;;;108492;1252;62273;-48
2023/03/17 06:23:01;;;;;;;1.70;0.50;;;;;;;;;;105479;1254;60320;-48
2023/03/17 06:25:35;;;;;;;0.60;0.40;;;;;;;;;;106878;1254;61243;-48
2023/03/17 06:28:04;;;;;;;0.70;0.40;;;;;;;;;;105209;1253;60543;-48
2023/03/17 06:30:33;;;;;;;1.10;0.40;;;;;;;;;;105219;1254;60466;-47
2023/03/17 06:33:06;;;;;;;1.70;0.50;;;;;;;;;;105384;1254;60861;-48
2023/03/17 06:35:35;;;;;;;2.00;0.50;;;;;;;;;;105387;1254;60596;-47
2023/03/17 06:38:04;;;;;;;3.20;0.40;;;;;;;;;;105895;1256;60488;-48
2023/03/17 06:40:32;;;;;;;0.90;0.50;;;;;;;;;;107190;1254;60751;-47
2023/03/17 06:43:01;;;;;;;1.30;0.50;;;;;;;;;;105203;1253;60513;-48
2023/03/17 06:45:36;;;;;;;1.30;0.60;;;;;;;;;;105588;1255;60646;-48
2023/03/17 06:48:05;;;;;;;3.20;0.60;;;;;;;;;;106705;1256;60323;-47
2023/03/17 06:50:34;;;;;;;0.70;0.50;;;;;;;;;;105344;1253;60469;-48
2023/03/17 06:53:02;;;;;;;0.70;0.50;;;;;;;;;;105141;1253;60608;-48
2023/03/17 06:55:32;;;;;;;1.60;0.60;;;;;;;;;;105467;1257;60432;-49
2023/03/17 06:58:05;;;;;;;1.00;0.50;;;;;;;;;;105396;1252;61878;-48
2023/03/17 07:00:37;;;;;;;2.10;0.70;;;;;;;;;;105705;1254;60485;-49
2023/03/17 07:03:05;;;;;;;1.40;0.60;;;;;;;;;;105998;1254;60732;-49
2023/03/17 07:05:34;;;;;;;0.90;0.50;;;;;;;;;;105749;1256;61840;-48
2023/03/17 07:08:02;;;;;;;1.90;0.70;;;;;;;;;;105674;1251;60409;-49
2023/03/17 07:10:30;;;;;;;1.00;0.60;;;;;;;;;;105733;1253;61832;-48
2023/03/17 07:12:59;;;;;;;1.30;0.50;;;;;;;;;;106297;1256;60511;-49
2023/03/17 07:15:30;;;;;;;1.10;0.50;;;;;;;;;;105362;1254;60950;-49
2023/03/17 07:18:01;;;;;;;1.70;0.70;;;;;;;;;;105829;1256;60415;-48
2023/03/17 07:20:30;;;;;;;1.00;0.60;;;;;;;;;;106099;1252;60647;-46
2023/03/17 07:22:58;;;;;;;0.60;0.50;;;;;;;;;;109176;1253;62268;-50
2023/03/17 07:25:26;;;;;;;1.80;0.70;;;;;;;;;;106963;1252;58996;-49
2023/03/17 07:27:54;;;;;;;3.50;1.00;;;;;;;;;;105977;1257;61058;-49
2023/03/17 07:30:22;;;;;;;3.20;1.40;;;;;;;;;;106803;1253;58911;-48
2023/03/17 07:32:51;;;;;;;1.70;0.80;;;;;;;;;;105713;1253;60408;-45
2023/03/17 07:35:18;;;;;;;1.80;0.60;;;;;;;;;;104872;1253;61234;-50
2023/03/17 07:37:47;;;;;;;1.30;0.70;;;;;;;;;;108463;1253;60123;-48
2023/03/17 07:42:27;;;;;;;4.30;2.20;;;;;;;;;;101697;1291;600689;-49
2023/03/17 07:44:56;;;;;;;3.50;1.50;;;;;;;;;;104271;1263;58975;-50
2023/03/17 07:47:24;;;;;;;2.10;0.70;;;;;;;;;;104329;1264;59098;-50
2023/03/17 07:49:53;;;;;;;2.30;0.60;;;;;;;;;;105152;1264;60606;-48
2023/03/17 07:52:22;;;;;;;2.30;0.50;;;;;;;;;;105939;1264;59205;-47
2023/03/17 07:54:50;;;;;;;0.60;0.50;;;;;;;;;;106624;1264;61215;-48
2023/03/17 07:57:19;;;;;;;1.00;0.60;;;;;;;;;;104592;1265;218511;-48
2023/03/17 07:59:47;;;;;;;0.70;0.50;;;;;;;;;;104426;1264;59164;-49
2023/03/17 08:02:15;;;;;;;1.10;0.80;;;;;;;;;;104265;1264;60264;-49
2023/03/17 08:04:44;;;;;;;0.70;0.60;;;;;;;;;;104770;1263;60589;-45
2023/03/17 08:07:12;;;;;;;0.60;0.50;;;;;;;;;;105320;1264;60935;-49
2023/03/17 08:09:41;;;;;;;1.90;0.50;;;;;;;;;;105991;1264;59753;-48
2023/03/17 08:12:09;;;;;;;1.50;0.70;;;;;;;;;;105034;1260;59604;-48
2023/03/17 08:14:37;;;;;;;2.10;0.60;;;;;;;;;;105381;1259;61102;-49
2023/03/17 08:17:05;;;;;;;1.50;0.80;;;;;;;;;;105705;1262;60317;-47
2023/03/17 08:19:33;;;;;;;0.80;0.60;;;;;;;;;;105321;1263;60775;-50
2023/03/17 08:22:02;;;;;;;1.30;0.80;;;;;;;;;;107525;1260;59704;-48
2023/03/17 08:24:31;;;;;;;0.90;0.80;;;;;;;;;;105465;1260;60024;-47
2023/03/17 08:29:11;;;;;;;1.10;0.80;;;;;;;;;;102271;1286;601447;-48
2023/03/17 08:31:40;;;;;;;1.00;0.60;;;;;;;;;;104400;1266;59319;-50
2023/03/17 08:34:08;;;;;;;1.80;0.40;;;;;;;;;;108550;1264;56936;-50
2023/03/17 08:36:36;;;;;;;5.30;0.60;;;;;;;;;;109052;1257;60454;-50
2023/03/17 08:39:04;;;;;;;1.70;0.60;;;;;;;;;;109000;1260;57130;-50
2023/03/17 08:41:32;;;;;;;1.80;0.50;;;;;;;;;;108949;1256;60832;-50
2023/03/17 08:44:00;;;;;;;2.60;0.70;;;;;;;;;;109110;1253;161567;-49
2023/03/17 08:46:29;;;;;;;0.80;0.60;;;;;;;;;;109142;1253;56924;-50
2023/03/17 08:48:57;;;;;;;2.00;0.70;;;;;;;;;;109287;1253;59605;-50
2023/03/17 08:51:27;;;;;;;1.80;0.60;;;;;;;;;;109552;1249;57719;-50
2023/03/17 08:53:58;;;;;;;1.40;0.60;;;;;;;;;;109309;1250;59138;-47
2023/03/17 08:56:28;;;;;;;1.40;1.00;;;;;;;;;;108555;1253;59745;-48
2023/03/17 08:58:56;;;;;;;1.10;0.80;;;;;;;;;;106034;1250;59702;-48
2023/03/17 09:01:24;;;;;;;1.00;0.50;;;;;;;;;;106719;1250;61400;-48
2023/03/17 09:03:53;;;;;;;1.70;0.60;;;;;;;;;;106369;1253;59493;-49
2023/03/17 09:06:24;;;;;;;1.10;0.50;;;;;;;;;;107982;1251;60785;-50
2023/03/17 09:08:55;;;;;;;2.00;0.80;;;;;;;;;;105823;1251;59531;-46
2023/03/17 09:11:24;;;;;;;1.20;0.80;;;;;;;;;;105549;1251;60615;-48
2023/03/17 09:13:58;;;;;;;2.00;0.70;;;;;;;;;;105336;1250;62481;-48
2023/03/17 09:16:32;;;;;;;1.70;0.70;;;;;;;;;;109265;1251;58563;-50
2023/03/17 09:19:00;;;;;;;1.60;0.70;;;;;;;;;;106027;1253;61709;-48
2023/03/17 09:21:29;;;;;;;1.30;0.60;;;;;;;;;;105174;1254;59743;-49
2023/03/17 09:23:57;;;;;;;1.10;0.60;;;;;;;;;;105256;1252;59624;-48
2023/03/17 09:26:29;;;;;;;2.80;0.70;;;;;;;;;;105260;1251;61285;-49
2023/03/17 09:28:57;;;;;;;0.90;0.70;;;;;;;;;;105270;1254;59763;-48
2023/03/17 09:31:25;;;;;;;4.20;0.70;;;;;;;;;;105248;1256;60877;-48
2023/03/17 09:33:58;;;;;;;1.30;0.70;;;;;;;;;;105614;1256;59746;-48
2023/03/17 09:36:26;;;;;;;1.30;0.70;;;;;;;;;;105712;1251;59494;-48
2023/03/17 09:38:54;;;;;;;0.70;0.50;;;;;;;;;;105511;1252;61321;-48
2023/03/17 09:41:22;;;;;;;1.20;0.60;;;;;;;;;;105086;1254;59623;-49
2023/03/17 09:43:58;;;;;;;2.50;0.80;;;;;;;;;;105455;1253;60496;-49
2023/03/17 09:46:45;;;;;;;2.60;1.70;;;;;;;;;;105124;1251;59538;-49
2023/03/17 09:49:15;;;;;;;1.40;0.70;;;;;;;;;;105111;1257;59801;-48
2023/03/17 09:51:50;;;;;;;1.00;0.80;;;;;;;;;;105310;1251;61474;-47
2023/03/17 09:54:30;;;;;;;3.80;0.70;;;;;;;;;;105723;1253;59641;-48
2023/03/17 09:57:05;;;;;;;1.00;0.70;;;;;;;;;;105254;1256;60586;-49
2023/03/17 09:59:34;;;;;;;1.10;0.50;;;;;;;;;;105953;1253;59605;-47
2023/03/17 10:02:02;;;;;;;1.20;0.60;;;;;;;;;;105339;1254;59487;-47
2023/03/17 10:04:31;;;;;;;1.40;0.70;;;;;;;;;;105183;1254;60148;-48
2023/03/17 10:07:02;;;;;;;3.20;0.60;;;;;;;;;;105126;1257;59658;-48
2023/03/17 10:09:38;;;;;;;1.10;0.70;;;;;;;;;;105423;1253;59666;-49
2023/03/17 10:12:21;;;;;;;2.00;0.70;;;;;;;;;;109129;1251;58844;-50
2023/03/17 10:15:03;;;;;;;2.50;0.50;;;;;;;;;;109212;1254;57834;-49
2023/03/17 10:17:34;;;;;;;1.50;0.60;;;;;;;;;;105707;1251;60937;-48
2023/03/17 10:20:04;;;;;;;0.70;0.50;;;;;;;;;;105679;1253;60496;-48
2023/03/17 10:22:40;;;;;;;2.10;0.50;;;;;;;;;;105757;1255;60579;-49
2023/03/17 10:25:18;;;;;;;3.50;1.90;;;;;;;;;;105503;1250;59720;-48
2023/03/17 10:27:51;;;;;;;2.00;0.90;;;;;;;;;;105733;1254;59660;-47
2023/03/17 10:30:20;;;;;;;2.20;0.60;;;;;;;;;;105549;1252;61325;-46
2023/03/17 10:32:49;;;;;;;0.90;0.60;;;;;;;;;;106160;1251;59628;-48
2023/03/17 10:35:17;;;;;;;2.10;0.90;;;;;;;;;;105667;1254;61115;-47
2023/03/17 10:37:45;;;;;;;1.20;0.70;;;;;;;;;;105695;1255;59727;-48
2023/03/17 10:40:20;;;;;;;0.60;0.50;;;;;;;;;;106224;1251;59590;-47
2023/03/17 10:42:52;;;;;;;1.00;0.50;;;;;;;;;;105967;1251;60101;-48
2023/03/17 10:45:24;;;;;;;1.00;0.60;;;;;;;;;;105715;1251;59766;-48
2023/03/17 10:47:54;;;;;;;1.70;0.70;;;;;;;;;;109171;1251;60718;-49
2023/03/17 10:50:24;;;;;;;1.00;0.60;;;;;;;;;;107650;1252;59741;-48
2023/03/17 10:53:08;;;;;;;0.70;0.50;;;;;;;;;;105642;1251;59599;-48
2023/03/17 10:55:40;;;;;;;1.70;0.40;;;;;;;;;;107031;1251;61136;-48
2023/03/17 10:58:33;;;;;;;2.00;0.40;;;;;;;;;;107270;1251;64521;-49
2023/03/17 11:01:06;;;;;;;2.40;0.50;;;;;;;;;;106137;1256;60511;-48
2023/03/17 11:03:36;;;;;;;2.00;0.70;;;;;;;;;;109091;1251;57610;-50
2023/03/17 11:06:05;;;;;;;4.30;0.70;;;;;;;;;;109205;1251;58003;-50
2023/03/17 11:08:54;;;;;;;2.80;0.50;;;;;;;;;;106231;1251;60239;-48
2023/03/17 11:11:26;;;;;;;0.60;0.50;;;;;;;;;;105790;1251;59615;-48
2023/03/17 11:14:02;;;;;;;1.10;0.60;;;;;;;;;;108200;1251;60535;-48
2023/03/17 11:16:31;;;;;;;0.60;0.50;;;;;;;;;;109288;1251;59238;-48
2023/03/17 11:18:58;;;;;;;1.40;0.50;;;;;;;;;;109212;1251;57647;-48
2023/03/17 11:21:28;;;;;;;1.50;0.60;;;;;;;;;;109272;1251;61353;-48
2023/03/17 11:24:18;;;;;;;2.20;0.60;;;;;;;;;;109079;1251;57787;-48
2023/03/17 11:26:58;;;;;;;0.60;0.40;;;;;;;;;;109196;1251;60532;-48
2023/03/17 11:29:36;;;;;;;0.70;0.70;;;;;;;;;;109189;1253;58681;-49
2023/03/17 11:32:10;;;;;;;2.50;0.40;;;;;;;;;;109268;1251;57464;-48
2023/03/17 11:34:42;;;;;;;0.60;0.40;;;;;;;;;;109261;1256;60202;-48
2023/03/17 11:37:22;;;;;;;1.80;0.60;;;;;;;;;;109252;1251;57889;-48
2023/03/17 11:39:56;;;;;;;1.90;0.70;;;;;;;;;;109048;1251;61415;-49
2023/03/17 11:42:26;;;;;;;0.90;0.60;;;;;;;;;;109074;1251;58685;-49
2023/03/17 11:45:20;;;;;;;20.60;1.50;;;;;;;;;;109225;1251;58436;-49
2023/03/17 11:48:12;;;;;;;2.30;0.80;;;;;;;;;;109088;1251;61409;-48
2023/03/17 11:50:40;;;;;;;1.70;0.80;;;;;;;;;;109103;1251;59522;-48
2023/03/17 11:53:18;;;;;;;2.60;0.60;;;;;;;;;;109201;1251;60816;-50
2023/03/17 11:56:05;;;;;;;1.20;0.70;;;;;;;;;;109190;1254;59221;-48
2023/03/17 11:58:45;;;;;;;0.80;0.50;;;;;;;;;;109160;1252;59950;-49
2023/03/17 12:01:18;;;;;;;0.70;0.50;;;;;;;;;;109135;1251;61072;-49
2023/03/17 12:03:51;;;;;;;0.90;0.50;;;;;;;;;;107463;1256;58996;-48
2023/03/17 12:06:30;;;;;;;0.70;0.50;;;;;;;;;;105820;1251;61203;-50
2023/03/17 12:09:02;;;;;;;2.90;1.70;;;;;;;;;;109030;1251;58318;-49
2023/03/17 12:11:30;;;;;;;2.00;1.10;;;;;;;;;;109181;1253;57406;-48
2023/03/17 12:14:03;;;;;;;1.20;0.80;;;;;;;;;;109112;1251;61051;-48
2023/03/17 12:16:34;;;;;;;0.90;0.70;;;;;;;;;;105684;1256;59606;-48
2023/03/17 12:19:06;;;;;;;0.70;0.50;;;;;;;;;;105823;1251;60749;-49
2023/03/17 12:21:53;;;;;;;0.70;0.60;;;;;;;;;;105546;1256;59679;-48
2023/03/17 12:24:31;;;;;;;2.60;1.10;;;;;;;;;;106022;1251;59618;-50
2023/03/17 12:27:02;;;;;;;1.30;0.60;;;;;;;;;;105675;1254;61141;-50
2023/03/17 12:29:41;;;;;;;2.10;0.40;;;;;;;;;;105629;1256;59590;-49
2023/03/17 12:32:11;;;;;;;1.30;0.60;;;;;;;;;;105671;1251;60881;-49
2023/03/17 12:34:41;;;;;;;1.20;0.70;;;;;;;;;;106328;1251;59778;-48
2023/03/17 12:37:09;;;;;;;1.40;0.60;;;;;;;;;;105612;1251;59675;-49
2023/03/17 12:39:39;;;;;;;0.60;0.40;;;;;;;;;;105703;1251;61177;-48
2023/03/17 12:42:15;;;;;;;2.30;0.40;;;;;;;;;;107793;1251;59023;-48
2023/03/17 12:45:01;;;;;;;1.80;0.30;;;;;;;;;;105979;1251;60491;-49
2023/03/17 12:47:33;;;;;;;0.60;0.40;;;;;;;;;;105609;1251;60459;-48
2023/03/17 12:50:14;;;;;;;1.10;0.40;;;;;;;;;;105586;1256;60441;-48
2023/03/17 12:53:06;;;;;;;0.80;0.60;;;;;;;;;;105731;1256;60796;-49
2023/03/17 12:55:35;;;;;;;1.10;0.60;;;;;;;;;;105449;1256;60564;-50
2023/03/17 12:58:06;;;;;;;0.80;0.60;;;;;;;;;;105707;1255;60451;-48
2023/03/17 13:00:36;;;;;;;1.50;0.60;;;;;;;;;;105806;1251;60417;-48
2023/03/17 13:03:24;;;;;;;2.10;0.60;;;;;;;;;;109099;1254;58308;-50
2023/03/17 13:06:00;;;;;;;0.90;0.50;;;;;;;;;;109291;1250;62051;-49
2023/03/17 13:08:35;;;;;;;0.70;0.60;;;;;;;;;;109259;1251;58487;-50
2023/03/17 13:11:12;;;;;;;0.70;0.50;;;;;;;;;;106054;1254;60329;-47
2023/03/17 13:13:53;;;;;;;0.60;0.40;;;;;;;;;;105596;1256;60780;-49
2023/03/17 13:16:29;;;;;;;0.80;0.50;;;;;;;;;;109274;1253;59844;-49
2023/03/17 13:19:17;;;;;;;0.70;0.60;;;;;;;;;;106946;1256;60914;-45
2023/03/17 13:21:56;;;;;;;1.70;0.50;;;;;;;;;;105718;1255;60549;-46
2023/03/17 13:24:47;;;;;;;0.80;0.50;;;;;;;;;;109213;1251;60843;-48
2023/03/17 13:27:30;;;;;;;0.80;0.40;;;;;;;;;;108560;1255;60628;-48
2023/03/17 13:30:00;;;;;;;1.20;0.40;;;;;;;;;;105624;1256;60306;-48
2023/03/17 13:32:31;;;;;;;1.70;0.60;;;;;;;;;;105498;1254;62322;-49
2023/03/17 13:35:00;;;;;;;1.40;0.50;;;;;;;;;;109328;1254;58601;-50
2023/03/17 13:37:43;;;;;;;1.40;0.70;;;;;;;;;;106661;1251;60914;-48
2023/03/17 13:40:21;;;;;;;1.10;0.70;;;;;;;;;;108857;1254;59149;-45
2023/03/17 13:42:55;;;;;;;2.10;0.70;;;;;;;;;;109219;1253;58257;-50
2023/03/17 13:45:37;;;;;;;1.10;0.60;;;;;;;;;;109262;1254;62072;-49
2023/03/17 13:48:20;;;;;;;1.80;0.80;;;;;;;;;;107885;1255;60341;-48
2023/03/17 13:50:52;;;;;;;1.00;0.60;;;;;;;;;;108098;1254;60994;-48
2023/03/17 13:56:02;;;;;;;0.50;0.40;;;;;;;;;;101954;1289;601995;-47
2023/03/17 13:58:32;;;;;;;2.60;0.70;;;;;;;;;;103787;1270;59049;-48
2023/03/17 14:01:01;;;;;;;5.40;1.50;;;;;;;;;;104492;1265;59074;-48
2023/03/17 14:03:35;;;;;;;2.10;0.90;;;;;;;;;;108290;1263;60546;-48
2023/03/17 14:06:04;;;;;;;1.20;0.80;;;;;;;;;;106046;1262;59033;-48
2023/03/17 14:08:35;;;;;;;1.70;0.90;;;;;;;;;;105296;1254;153332;-48
2023/03/17 14:11:07;;;;;;;1.40;0.60;;;;;;;;;;108845;1254;57268;-49
2023/03/17 14:13:39;;;;;;;1.70;0.40;;;;;;;;;;108866;1254;57049;-50
2023/03/17 14:16:14;;;;;;;0.80;0.50;;;;;;;;;;109117;1255;60591;-50
2023/03/17 14:18:50;;;;;;;1.40;0.60;;;;;;;;;;105278;1254;59505;-46
2023/03/17 14:21:22;;;;;;;0.80;0.60;;;;;;;;;;106121;1254;60489;-47
2023/03/17 14:23:53;;;;;;;1.80;0.50;;;;;;;;;;107791;1257;59105;-48
2023/03/17 14:26:22;;;;;;;1.90;0.80;;;;;;;;;;105520;1254;60319;-48
2023/03/17 14:28:50;;;;;;;1.20;0.80;;;;;;;;;;105010;1256;61590;-48
2023/03/17 14:31:22;;;;;;;1.10;0.60;;;;;;;;;;104937;1260;59983;-47
2023/03/17 14:33:53;;;;;;;3.20;0.70;;;;;;;;;;105982;1254;60696;-47
2023/03/17 14:36:21;;;;;;;1.30;0.50;;;;;;;;;;105390;1257;59913;-48
2023/03/17 14:38:53;;;;;;;0.90;0.60;;;;;;;;;;108297;1255;57608;-48
2023/03/17 14:41:24;;;;;;;1.40;1.10;;;;;;;;;;108669;1254;61389;-48
2023/03/17 14:43:58;;;;;;;2.10;1.20;;;;;;;;;;104942;1254;59621;-47
2023/03/17 14:46:30;;;;;;;2.30;1.10;;;;;;;;;;104888;1259;59946;-44
2023/03/17 14:49:01;;;;;;;2.50;1.00;;;;;;;;;;104962;1254;59561;-48
2023/03/17 14:51:32;;;;;;;1.70;0.70;;;;;;;;;;104937;1257;61721;-51
2023/03/17 14:54:02;;;;;;;3.30;0.70;;;;;;;;;;106033;1254;61037;-47
2023/03/17 14:56:36;;;;;;;2.20;0.90;;;;;;;;;;105049;1259;59541;-48
2023/03/17 14:59:27;;;;;;;2.90;0.80;;;;;;;;;;105009;1259;60748;-48